Kostroma, Russia
Current Conditions -  °F | °C
As of 4:00 PM on Monday 20 Oct 2014 (Local Time) from UUDL Reporting Station
Overcast Overcast  
Wind Chill: 24°   Ceiling: 1000
Heat Index: 30°   Visibility: 6mi
Dew Point: 27°   Wind: 7mph
Humidity: 86%   Direction: 100°E
Pressure: 29.44"   Gusts: NA
Location:  57.77°N, 40.93°E
Report Text: UUDL 201300Z 10003MPS 9999 OVC010 M01/M03 Q0997 NOSIG RMKQFE739 23290048
Loading
Personal Weather Stations






























Interactive Weather Map
Tropical Storm Tracking
New forecast layout! Learn more

10-Day Weather Forecast

Advertisements
Track Severe Weather on mobile